sensor_id;sensor_type;location;lat;lon;timestamp;temperature;humidity
6520;DHT22;3293;51.690;5.982;2024-01-15T00:04:46;1.90;99.90
6520;DHT22;3293;51.690;5.982;2024-01-15T00:09:45;1.80;99.90
6520;DHT22;3293;51.690;5.982;2024-01-15T00:14:45;1.70;99.90
6520;DHT22;3293;51.690;5.982;2024-01-15T00:19:45;1.80;99.90
6520;DHT22;3293;51.690;5.982;2024-01-15T00:24:45;1.70;99.90
6520;DHT22;3293;51.690;5.982;2024-01-15T00:29:45;1.60;99.90
6520;DHT22;3293;51.690;5.982;2024-01-15T00:34:45;1.70;99.90
6520;DHT22;3293;51.690;5.982;2024-01-15T00:39:45;1.60;99.90
6520;DHT22;3293;51.690;5.982;2024-01-15T00:44:45;1.50;99.90
6520;DHT22;3293;51.690;5.982;2024-01-15T00:49:45;1.40;99.90
6520;DHT22;3293;51.690;5.982;2024-01-15T00:54:45;1.40;99.90
6520;DHT22;3293;51.690;5.982;2024-01-15T00:59:45;1.50;99.90
6520;DHT22;3293;51.690;5.982;2024-01-15T01:04:44;1.60;99.90
6520;DHT22;3293;51.690;5.982;2024-01-15T01:09:44;1.60;99.90
6520;DHT22;3293;51.690;5.982;2024-01-15T01:14:45;1.60;99.90
6520;DHT22;3293;51.690;5.982;2024-01-15T01:19:45;1.60;99.90
6520;DHT22;3293;51.690;5.982;2024-01-15T01:24:47;1.50;99.90
6520;DHT22;3293;51.690;5.982;2024-01-15T01:29:46;1.60;99.90
6520;DHT22;3293;51.690;5.982;2024-01-15T01:34:46;1.50;99.90
6520;DHT22;3293;51.690;5.982;2024-01-15T01:39:46;1.40;99.90
6520;DHT22;3293;51.690;5.982;2024-01-15T01:44:46;1.40;99.90
6520;DHT22;3293;51.690;5.982;2024-01-15T01:49:46;1.40;99.90
6520;DHT22;3293;51.690;5.982;2024-01-15T01:54:46;1.30;99.90
6520;DHT22;3293;51.690;5.982;2024-01-15T01:59:47;1.30;99.90
6520;DHT22;3293;51.690;5.982;2024-01-15T02:04:47;1.20;99.90
6520;DHT22;3293;51.690;5.982;2024-01-15T02:09:47;1.20;99.90
6520;DHT22;3293;51.690;5.982;2024-01-15T02:14:47;1.30;99.90
6520;DHT22;3293;51.690;5.982;2024-01-15T02:19:47;1.20;99.90
6520;DHT22;3293;51.690;5.982;2024-01-15T02:24:47;1.10;99.90
6520;DHT22;3293;51.690;5.982;2024-01-15T02:29:48;1.00;99.90
6520;DHT22;3293;51.690;5.982;2024-01-15T02:34:48;0.90;99.90
6520;DHT22;3293;51.690;5.982;2024-01-15T02:39:48;0.90;99.90
6520;DHT22;3293;51.690;5.982;2024-01-15T02:44:48;0.80;99.90
6520;DHT22;3293;51.690;5.982;2024-01-15T02:49:48;0.80;99.90
6520;DHT22;3293;51.690;5.982;2024-01-15T02:54:48;0.80;99.90
6520;DHT22;3293;51.690;5.982;2024-01-15T02:59:48;0.90;99.90
6520;DHT22;3293;51.690;5.982;2024-01-15T03:04:48;0.90;99.90
6520;DHT22;3293;51.690;5.982;2024-01-15T03:09:48;0.90;99.90
6520;DHT22;3293;51.690;5.982;2024-01-15T03:14:47;0.80;99.90
6520;DHT22;3293;51.690;5.982;2024-01-15T03:19:47;0.80;99.90
6520;DHT22;3293;51.690;5.982;2024-01-15T03:24:49;0.80;99.90
6520;DHT22;3293;51.690;5.982;2024-01-15T03:29:49;0.80;99.90
6520;DHT22;3293;51.690;5.982;2024-01-15T03:34:49;0.80;99.90
6520;DHT22;3293;51.690;5.982;2024-01-15T03:39:49;0.80;99.90
6520;DHT22;3293;51.690;5.982;2024-01-15T03:44:49;0.80;99.90
6520;DHT22;3293;51.690;5.982;2024-01-15T03:49:48;0.90;99.90
6520;DHT22;3293;51.690;5.982;2024-01-15T03:54:48;0.90;99.90
6520;DHT22;3293;51.690;5.982;2024-01-15T03:59:48;0.90;99.90
6520;DHT22;3293;51.690;5.982;2024-01-15T04:04:48;0.90;99.90
6520;DHT22;3293;51.690;5.982;2024-01-15T04:09:48;0.90;99.90
6520;DHT22;3293;51.690;5.982;2024-01-15T04:14:47;0.80;99.90
6520;DHT22;3293;51.690;5.982;2024-01-15T04:19:47;0.80;99.90
6520;DHT22;3293;51.690;5.982;2024-01-15T04:24:50;0.70;99.90
6520;DHT22;3293;51.690;5.982;2024-01-15T04:29:50;0.70;99.90
6520;DHT22;3293;51.690;5.982;2024-01-15T04:34:50;0.80;99.90
6520;DHT22;3293;51.690;5.982;2024-01-15T04:39:50;0.90;99.90
6520;DHT22;3293;51.690;5.982;2024-01-15T04:44:52;0.80;99.90
6520;DHT22;3293;51.690;5.982;2024-01-15T04:49:52;0.80;99.90
6520;DHT22;3293;51.690;5.982;2024-01-15T04:54:52;0.80;99.90
6520;DHT22;3293;51.690;5.982;2024-01-15T04:59:52;0.80;99.90
6520;DHT22;3293;51.690;5.982;2024-01-15T05:04:52;0.70;99.90
6520;DHT22;3293;51.690;5.982;2024-01-15T05:09:51;0.80;99.90
6520;DHT22;3293;51.690;5.982;2024-01-15T05:14:51;0.90;99.90
6520;DHT22;3293;51.690;5.982;2024-01-15T05:19:51;1.00;99.90
6520;DHT22;3293;51.690;5.982;2024-01-15T05:24:51;1.00;99.90
6520;DHT22;3293;51.690;5.982;2024-01-15T05:29:51;1.00;99.90
6520;DHT22;3293;51.690;5.982;2024-01-15T05:34:51;1.10;99.90
6520;DHT22;3293;51.690;5.982;2024-01-15T05:39:51;1.10;99.90
6520;DHT22;3293;51.690;5.982;2024-01-15T05:44:50;1.10;99.90
6520;DHT22;3293;51.690;5.982;2024-01-15T05:49:50;1.20;99.90
6520;DHT22;3293;51.690;5.982;2024-01-15T05:54:50;1.20;99.90
6520;DHT22;3293;51.690;5.982;2024-01-15T05:59:50;1.10;99.90
6520;DHT22;3293;51.690;5.982;2024-01-15T06:04:50;1.10;99.90
6520;DHT22;3293;51.690;5.982;2024-01-15T06:09:50;1.10;99.90
6520;DHT22;3293;51.690;5.982;2024-01-15T06:14:50;1.10;99.90
6520;DHT22;3293;51.690;5.982;2024-01-15T06:19:50;1.00;99.90
6520;DHT22;3293;51.690;5.982;2024-01-15T06:24:50;1.10;99.90
6520;DHT22;3293;51.690;5.982;2024-01-15T06:29:50;1.10;99.90
6520;DHT22;3293;51.690;5.982;2024-01-15T06:34:50;1.20;99.90
6520;DHT22;3293;51.690;5.982;2024-01-15T06:39:50;1.20;99.90
6520;DHT22;3293;51.690;5.982;2024-01-15T06:44:50;1.20;99.90
6520;DHT22;3293;51.690;5.982;2024-01-15T06:49:49;1.20;99.90
6520;DHT22;3293;51.690;5.982;2024-01-15T06:54:51;1.20;99.90
6520;DHT22;3293;51.690;5.982;2024-01-15T06:59:51;1.20;99.90
6520;DHT22;3293;51.690;5.982;2024-01-15T07:04:51;1.20;99.90
6520;DHT22;3293;51.690;5.982;2024-01-15T07:09:51;1.20;99.90
6520;DHT22;3293;51.690;5.982;2024-01-15T07:14:51;1.30;99.90
6520;DHT22;3293;51.690;5.982;2024-01-15T07:19:51;1.30;99.90
6520;DHT22;3293;51.690;5.982;2024-01-15T07:24:51;1.30;99.90
6520;DHT22;3293;51.690;5.982;2024-01-15T07:29:51;1.30;99.90
6520;DHT22;3293;51.690;5.982;2024-01-15T07:34:51;1.30;99.90
6520;DHT22;3293;51.690;5.982;2024-01-15T07:39:51;1.30;99.90
6520;DHT22;3293;51.690;5.982;2024-01-15T07:44:51;1.30;99.90
6520;DHT22;3293;51.690;5.982;2024-01-15T07:49:52;1.20;99.90
6520;DHT22;3293;51.690;5.982;2024-01-15T07:54:52;1.10;99.90
6520;DHT22;3293;51.690;5.982;2024-01-15T07:59:52;1.10;99.90
6520;DHT22;3293;51.690;5.982;2024-01-15T08:04:51;1.00;99.90
6520;DHT22;3293;51.690;5.982;2024-01-15T08:09:52;1.00;99.90
6520;DHT22;3293;51.690;5.982;2024-01-15T08:14:52;1.00;99.90
6520;DHT22;3293;51.690;5.982;2024-01-15T08:19:52;1.10;99.90
6520;DHT22;3293;51.690;5.982;2024-01-15T08:24:52;1.10;99.90
6520;DHT22;3293;51.690;5.982;2024-01-15T08:29:51;1.10;99.90
6520;DHT22;3293;51.690;5.982;2024-01-15T08:34:51;1.10;99.90
6520;DHT22;3293;51.690;5.982;2024-01-15T08:39:51;1.20;99.90
6520;DHT22;3293;51.690;5.982;2024-01-15T08:44:51;1.20;99.90
6520;DHT22;3293;51.690;5.982;2024-01-15T08:49:51;1.20;99.90
6520;DHT22;3293;51.690;5.982;2024-01-15T08:54:51;1.20;99.90
6520;DHT22;3293;51.690;5.982;2024-01-15T08:59:51;1.30;99.90
6520;DHT22;3293;51.690;5.982;2024-01-15T09:04:51;1.30;99.90
6520;DHT22;3293;51.690;5.982;2024-01-15T09:09:51;1.30;99.90
6520;DHT22;3293;51.690;5.982;2024-01-15T09:14:51;1.40;99.90
6520;DHT22;3293;51.690;5.982;2024-01-15T09:19:51;1.40;99.90
6520;DHT22;3293;51.690;5.982;2024-01-15T09:24:52;1.40;99.90
6520;DHT22;3293;51.690;5.982;2024-01-15T09:29:52;1.40;99.90
6520;DHT22;3293;51.690;5.982;2024-01-15T09:34:52;1.40;99.90
6520;DHT22;3293;51.690;5.982;2024-01-15T09:39:52;1.40;99.90
6520;DHT22;3293;51.690;5.982;2024-01-15T09:44:52;1.40;99.90
6520;DHT22;3293;51.690;5.982;2024-01-15T09:49:52;1.40;99.90
6520;DHT22;3293;51.690;5.982;2024-01-15T09:54:52;1.40;99.90
6520;DHT22;3293;51.690;5.982;2024-01-15T09:59:53;1.50;99.90
6520;DHT22;3293;51.690;5.982;2024-01-15T10:04:54;1.40;99.90
6520;DHT22;3293;51.690;5.982;2024-01-15T10:09:54;1.40;99.90
6520;DHT22;3293;51.690;5.982;2024-01-15T10:14:55;1.50;99.90
6520;DHT22;3293;51.690;5.982;2024-01-15T10:19:55;1.80;99.90
6520;DHT22;3293;51.690;5.982;2024-01-15T10:24:56;1.90;99.90
6520;DHT22;3293;51.690;5.982;2024-01-15T10:29:59;1.90;99.90
6520;DHT22;3293;51.690;5.982;2024-01-15T10:35:00;2.10;99.90
6520;DHT22;3293;51.690;5.982;2024-01-15T10:40:02;2.10;99.90
6520;DHT22;3293;51.690;5.982;2024-01-15T10:45:04;1.90;99.90
6520;DHT22;3293;51.690;5.982;2024-01-15T10:50:05;1.70;99.90
6520;DHT22;3293;51.690;5.982;2024-01-15T10:55:10;1.70;99.90
6520;DHT22;3293;51.690;5.982;2024-01-15T11:00:10;1.70;99.90
6520;DHT22;3293;51.690;5.982;2024-01-15T11:05:14;1.70;99.90
6520;DHT22;3293;51.690;5.982;2024-01-15T11:10:50;1.90;99.90
6520;DHT22;3293;51.690;5.982;2024-01-15T11:15:56;2.00;99.90
6520;DHT22;3293;51.690;5.982;2024-01-15T11:26:31;1.90;99.90
6520;DHT22;3293;51.690;5.982;2024-01-15T11:41:49;2.40;99.90
6520;DHT22;3293;51.690;5.982;2024-01-15T11:51:57;2.60;99.90
6520;DHT22;3293;51.690;5.982;2024-01-15T11:57:02;2.60;99.90
6520;DHT22;3293;51.690;5.982;2024-01-15T12:02:04;2.60;99.90
6520;DHT22;3293;51.690;5.982;2024-01-15T12:07:04;2.70;99.90
6520;DHT22;3293;51.690;5.982;2024-01-15T12:12:13;2.60;99.90
6520;DHT22;3293;51.690;5.982;2024-01-15T12:17:16;2.60;99.90
6520;DHT22;3293;51.690;5.982;2024-01-15T12:22:16;2.60;99.90
6520;DHT22;3293;51.690;5.982;2024-01-15T12:27:16;2.60;99.90
6520;DHT22;3293;51.690;5.982;2024-01-15T12:32:16;2.50;99.90
6520;DHT22;3293;51.690;5.982;2024-01-15T12:37:18;2.30;99.90
6520;DHT22;3293;51.690;5.982;2024-01-15T12:42:19;2.20;99.90
6520;DHT22;3293;51.690;5.982;2024-01-15T12:47:19;2.10;99.90
6520;DHT22;3293;51.690;5.982;2024-01-15T12:52:20;2.20;99.90
6520;DHT22;3293;51.690;5.982;2024-01-15T12:57:21;2.30;99.90
6520;DHT22;3293;51.690;5.982;2024-01-15T13:02:21;2.40;99.90
6520;DHT22;3293;51.690;5.982;2024-01-15T13:07:21;2.60;99.90
6520;DHT22;3293;51.690;5.982;2024-01-15T13:12:21;2.60;99.90
6520;DHT22;3293;51.690;5.982;2024-01-15T13:17:22;2.50;99.90
6520;DHT22;3293;51.690;5.982;2024-01-15T13:22:22;2.50;99.90
6520;DHT22;3293;51.690;5.982;2024-01-15T13:27:22;2.80;99.90
6520;DHT22;3293;51.690;5.982;2024-01-15T13:32:25;2.70;99.90
6520;DHT22;3293;51.690;5.982;2024-01-15T13:37:26;2.60;99.90
6520;DHT22;3293;51.690;5.982;2024-01-15T13:42:25;2.60;99.90
6520;DHT22;3293;51.690;5.982;2024-01-15T13:47:26;2.50;99.90
6520;DHT22;3293;51.690;5.982;2024-01-15T13:52:26;2.50;99.90
6520;DHT22;3293;51.690;5.982;2024-01-15T13:57:27;2.30;99.90
6520;DHT22;3293;51.690;5.982;2024-01-15T14:02:27;2.20;99.90
6520;DHT22;3293;51.690;5.982;2024-01-15T14:07:27;2.10;99.90
6520;DHT22;3293;51.690;5.982;2024-01-15T14:12:27;1.90;99.90
6520;DHT22;3293;51.690;5.982;2024-01-15T14:17:27;1.80;99.90
6520;DHT22;3293;51.690;5.982;2024-01-15T14:22:27;1.70;99.90
6520;DHT22;3293;51.690;5.982;2024-01-15T14:27:27;1.60;99.90
6520;DHT22;3293;51.690;5.982;2024-01-15T14:32:27;1.70;99.90
6520;DHT22;3293;51.690;5.982;2024-01-15T14:37:27;1.60;99.90
6520;DHT22;3293;51.690;5.982;2024-01-15T14:42:27;1.50;99.90
6520;DHT22;3293;51.690;5.982;2024-01-15T14:47:27;1.40;99.90
6520;DHT22;3293;51.690;5.982;2024-01-15T14:52:27;1.40;99.90
6520;DHT22;3293;51.690;5.982;2024-01-15T14:57:27;1.50;99.90
6520;DHT22;3293;51.690;5.982;2024-01-15T15:02:27;1.50;99.90
6520;DHT22;3293;51.690;5.982;2024-01-15T15:07:28;1.50;99.90
6520;DHT22;3293;51.690;5.982;2024-01-15T15:12:27;1.40;99.90
6520;DHT22;3293;51.690;5.982;2024-01-15T15:17:27;1.40;99.90
6520;DHT22;3293;51.690;5.982;2024-01-15T15:22:27;1.50;99.90
6520;DHT22;3293;51.690;5.982;2024-01-15T15:27:27;1.60;99.90
6520;DHT22;3293;51.690;5.982;2024-01-15T15:32:28;1.60;99.90
6520;DHT22;3293;51.690;5.982;2024-01-15T15:37:28;1.50;99.90
6520;DHT22;3293;51.690;5.982;2024-01-15T15:42:29;1.50;99.90
6520;DHT22;3293;51.690;5.982;2024-01-15T15:47:29;1.40;99.90
6520;DHT22;3293;51.690;5.982;2024-01-15T15:52:29;1.40;99.90
6520;DHT22;3293;51.690;5.982;2024-01-15T15:57:30;1.30;99.90
6520;DHT22;3293;51.690;5.982;2024-01-15T16:02:31;1.20;99.90
6520;DHT22;3293;51.690;5.982;2024-01-15T16:07:31;1.20;99.90
6520;DHT22;3293;51.690;5.982;2024-01-15T16:12:31;1.10;99.90
6520;DHT22;3293;51.690;5.982;2024-01-15T16:17:31;1.00;99.90
6520;DHT22;3293;51.690;5.982;2024-01-15T16:22:31;0.90;99.90
6520;DHT22;3293;51.690;5.982;2024-01-15T16:27:32;0.90;99.90
6520;DHT22;3293;51.690;5.982;2024-01-15T16:32:32;0.90;99.90
6520;DHT22;3293;51.690;5.982;2024-01-15T16:37:32;0.90;99.90
6520;DHT22;3293;51.690;5.982;2024-01-15T16:42:32;0.90;99.90
6520;DHT22;3293;51.690;5.982;2024-01-15T16:47:32;1.00;99.90
6520;DHT22;3293;51.690;5.982;2024-01-15T16:52:32;1.10;99.90
6520;DHT22;3293;51.690;5.982;2024-01-15T16:57:32;1.10;99.90
6520;DHT22;3293;51.690;5.982;2024-01-15T17:02:32;1.30;99.90
6520;DHT22;3293;51.690;5.982;2024-01-15T17:07:32;1.30;99.90
6520;DHT22;3293;51.690;5.982;2024-01-15T17:12:32;1.30;99.90
6520;DHT22;3293;51.690;5.982;2024-01-15T17:17:32;1.30;99.90
6520;DHT22;3293;51.690;5.982;2024-01-15T17:22:32;1.40;99.90
6520;DHT22;3293;51.690;5.982;2024-01-15T17:27:32;1.30;99.90
6520;DHT22;3293;51.690;5.982;2024-01-15T17:32:33;1.20;99.90
6520;DHT22;3293;51.690;5.982;2024-01-15T17:37:33;1.00;99.90
6520;DHT22;3293;51.690;5.982;2024-01-15T17:42:33;0.90;99.90
6520;DHT22;3293;51.690;5.982;2024-01-15T17:47:33;0.80;99.90
6520;DHT22;3293;51.690;5.982;2024-01-15T17:52:33;0.70;99.90
6520;DHT22;3293;51.690;5.982;2024-01-15T17:57:33;0.60;99.90
6520;DHT22;3293;51.690;5.982;2024-01-15T18:02:33;0.60;99.90
6520;DHT22;3293;51.690;5.982;2024-01-15T18:07:33;0.50;99.90
6520;DHT22;3293;51.690;5.982;2024-01-15T18:12:32;0.50;99.90
6520;DHT22;3293;51.690;5.982;2024-01-15T18:17:32;0.50;99.90
6520;DHT22;3293;51.690;5.982;2024-01-15T18:22:34;0.50;99.90
6520;DHT22;3293;51.690;5.982;2024-01-15T18:27:34;0.60;99.90
6520;DHT22;3293;51.690;5.982;2024-01-15T18:32:34;0.60;99.90
6520;DHT22;3293;51.690;5.982;2024-01-15T18:37:34;0.50;99.90
6520;DHT22;3293;51.690;5.982;2024-01-15T18:42:35;0.50;99.90
6520;DHT22;3293;51.690;5.982;2024-01-15T18:47:35;0.50;99.90
6520;DHT22;3293;51.690;5.982;2024-01-15T18:52:36;0.50;99.90
6520;DHT22;3293;51.690;5.982;2024-01-15T18:57:36;0.50;99.90
6520;DHT22;3293;51.690;5.982;2024-01-15T19:02:36;0.50;99.90
6520;DHT22;3293;51.690;5.982;2024-01-15T19:07:37;0.50;99.90
6520;DHT22;3293;51.690;5.982;2024-01-15T19:12:38;0.50;99.90
6520;DHT22;3293;51.690;5.982;2024-01-15T19:17:38;0.40;99.90
6520;DHT22;3293;51.690;5.982;2024-01-15T19:22:38;0.40;99.90
6520;DHT22;3293;51.690;5.982;2024-01-15T19:27:38;0.40;99.90
6520;DHT22;3293;51.690;5.982;2024-01-15T19:32:42;0.40;99.90
6520;DHT22;3293;51.690;5.982;2024-01-15T19:37:43;0.30;99.90
6520;DHT22;3293;51.690;5.982;2024-01-15T19:42:45;0.30;99.90
6520;DHT22;3293;51.690;5.982;2024-01-15T19:47:45;0.40;99.90
6520;DHT22;3293;51.690;5.982;2024-01-15T19:52:45;0.50;99.90
6520;DHT22;3293;51.690;5.982;2024-01-15T19:57:44;0.60;99.90
6520;DHT22;3293;51.690;5.982;2024-01-15T20:02:45;0.70;99.90
6520;DHT22;3293;51.690;5.982;2024-01-15T20:07:45;0.70;99.90
6520;DHT22;3293;51.690;5.982;2024-01-15T20:12:45;0.80;99.90
6520;DHT22;3293;51.690;5.982;2024-01-15T20:17:45;0.80;99.90
6520;DHT22;3293;51.690;5.982;2024-01-15T20:22:45;0.80;99.90
6520;DHT22;3293;51.690;5.982;2024-01-15T20:27:45;0.80;99.90
6520;DHT22;3293;51.690;5.982;2024-01-15T20:32:45;0.90;99.90
6520;DHT22;3293;51.690;5.982;2024-01-15T20:37:45;0.90;99.90
6520;DHT22;3293;51.690;5.982;2024-01-15T20:42:45;0.90;99.90
6520;DHT22;3293;51.690;5.982;2024-01-15T20:47:45;0.90;99.90
6520;DHT22;3293;51.690;5.982;2024-01-15T20:52:45;0.90;99.90
6520;DHT22;3293;51.690;5.982;2024-01-15T20:57:44;0.90;99.90
6520;DHT22;3293;51.690;5.982;2024-01-15T21:02:44;0.90;99.90
6520;DHT22;3293;51.690;5.982;2024-01-15T21:07:44;0.90;99.90
6520;DHT22;3293;51.690;5.982;2024-01-15T21:12:44;0.90;99.90
6520;DHT22;3293;51.690;5.982;2024-01-15T21:17:44;0.80;99.90
6520;DHT22;3293;51.690;5.982;2024-01-15T21:22:44;0.90;99.90
6520;DHT22;3293;51.690;5.982;2024-01-15T21:27:44;0.90;99.90
6520;DHT22;3293;51.690;5.982;2024-01-15T21:32:45;0.80;99.90
6520;DHT22;3293;51.690;5.982;2024-01-15T21:37:46;0.80;99.90
6520;DHT22;3293;51.690;5.982;2024-01-15T21:42:46;0.80;99.90
6520;DHT22;3293;51.690;5.982;2024-01-15T21:47:46;0.70;99.90
6520;DHT22;3293;51.690;5.982;2024-01-15T21:52:46;0.70;99.90
6520;DHT22;3293;51.690;5.982;2024-01-15T21:57:46;0.80;99.90
6520;DHT22;3293;51.690;5.982;2024-01-15T22:02:46;0.80;99.90
6520;DHT22;3293;51.690;5.982;2024-01-15T22:07:45;0.80;99.90
6520;DHT22;3293;51.690;5.982;2024-01-15T22:12:45;0.70;99.90
6520;DHT22;3293;51.690;5.982;2024-01-15T22:17:45;0.60;99.90
6520;DHT22;3293;51.690;5.982;2024-01-15T22:22:46;0.70;99.90
6520;DHT22;3293;51.690;5.982;2024-01-15T22:27:46;0.70;99.90
6520;DHT22;3293;51.690;5.982;2024-01-15T22:32:46;0.70;99.90
6520;DHT22;3293;51.690;5.982;2024-01-15T22:37:46;0.60;99.90
6520;DHT22;3293;51.690;5.982;2024-01-15T22:42:46;0.50;99.90
6520;DHT22;3293;51.690;5.982;2024-01-15T22:47:46;0.40;99.90
6520;DHT22;3293;51.690;5.982;2024-01-15T22:52:46;0.30;99.90
6520;DHT22;3293;51.690;5.982;2024-01-15T22:57:46;0.20;99.90
6520;DHT22;3293;51.690;5.982;2024-01-15T23:02:46;0.20;99.90
6520;DHT22;3293;51.690;5.982;2024-01-15T23:07:46;0.10;99.90
6520;DHT22;3293;51.690;5.982;2024-01-15T23:12:48;0.00;99.90
6520;DHT22;3293;51.690;5.982;2024-01-15T23:17:48;0.00;99.90
6520;DHT22;3293;51.690;5.982;2024-01-15T23:22:48;-0.10;99.90
6520;DHT22;3293;51.690;5.982;2024-01-15T23:27:47;-0.20;99.90
6520;DHT22;3293;51.690;5.982;2024-01-15T23:32:47;-0.10;99.90
6520;DHT22;3293;51.690;5.982;2024-01-15T23:37:47;0.00;99.90
6520;DHT22;3293;51.690;5.982;2024-01-15T23:42:47;0.10;99.90
6520;DHT22;3293;51.690;5.982;2024-01-15T23:47:47;0.10;99.90
6520;DHT22;3293;51.690;5.982;2024-01-15T23:52:47;0.20;99.90
6520;DHT22;3293;51.690;5.982;2024-01-15T23:57:47;0.10;99.90
